No particular awareness of the weather is required.    There are no Weather-warnings


Meteo18 Weather Cam more information Meteo18 Weather Cam


Thunder radar more information blitzortung!


Rain radar more information rain snow radar


Visit our other weather sites:

Template documentation
and downloads

And another site



Weather Underground History page Text

Daily Summary for February 8, 2017 Units:  English    Metric   Both
« Previous Day
Next Day »
Daily Weekly Monthly Yearly Custom
  High: Low: Average:
Temperature: TemperatureC °F 3.0 °F 4.9 °F
Dew Point: DewpointC °F 2.1 °F 3.2 °F
Humidity: Humidity % 78 % 89 %
Wind Speed: WindSpeedKMH mph 0.0 mph 3.4 mph
Wind Gust: WindSpeedGustKMH mph - -
Wind:- - WNW
Pressure: PressurehPa in 1018.5 in -
Precipitation: 0.5 in    
Historical Graphs
 
 
Tabular Data for February 8, 2017
Time Temperature Dew Point Pressure Wind Wind Speed Wind Gust Humidity Rainfall Rate (Hourly)
TemperatureC °F DewpointC °F PressurehPa in Calm     Humidity % HourlyPrecipMM in
00:02 5.5 °F 3.7 °F 1018.5 in NW 1.6 mph 4.8 mph 88 % 0.0 in
00:07 5.5 °F 3.7 °F 1018.5 in NW 1.6 mph 4.8 mph 88 % 0.0 in
00:12 5.4 °F 3.6 °F 1018.5 in NNW 1.6 mph 4.8 mph 88 % 0.0 in
00:22 5.2 °F 3.4 °F 1018.8 in NNW 3.2 mph 4.8 mph 88 % 0.0 in
00:27 5.2 °F 3.4 °F 1018.8 in NW 3.2 mph 4.8 mph 88 % 0.0 in
00:32 5.2 °F 3.4 °F 1018.8 in NW 1.6 mph 9.7 mph 88 % 0.0 in
00:37 5.1 °F 3.3 °F 1018.8 in NW 3.2 mph 9.7 mph 88 % 0.0 in
00:42 5.1 °F 3.3 °F 1018.5 in NW 3.2 mph 9.7 mph 88 % 0.0 in
00:47 4.9 °F 3.1 °F 1018.8 in Calm   9.7 mph 88 % 0.0 in
00:52 4.9 °F 3.1 °F 1018.8 in NW 4.8 mph 8.0 mph 88 % 0.0 in
00:57 4.9 °F 3.1 °F 1018.8 in Calm   6.4 mph 88 % 0.0 in
01:02 4.9 °F 3.1 °F 1018.8 in NW 1.6 mph 6.4 mph 88 % 0.0 in
01:07 4.8 °F 3.0 °F 1018.8 in NNW 1.6 mph 6.4 mph 88 % 0.0 in
01:12 4.8 °F 3.0 °F 1018.8 in WNW 1.6 mph 4.8 mph 88 % 0.0 in
01:17 4.8 °F 3.0 °F 1018.8 in North 1.6 mph 4.8 mph 88 % 0.0 in
01:22 4.8 °F 3.0 °F 1018.8 in NNW 1.6 mph 4.8 mph 88 % 0.0 in
01:27 4.7 °F 2.9 °F 1018.8 in Calm   6.4 mph 88 % 0.0 in
01:32 4.5 °F 2.8 °F 1018.5 in Calm   6.4 mph 89 % 0.0 in
01:37 4.5 °F 2.8 °F 1018.5 in Calm   6.4 mph 89 % 0.0 in
01:42 4.2 °F 2.7 °F 1018.5 in NW 3.2 mph 4.8 mph 90 % 0.0 in
01:47 4.4 °F 2.9 °F 1018.8 in NW 1.6 mph 6.4 mph 90 % 0.0 in
01:52 4.6 °F 2.9 °F 1018.8 in NNW 4.8 mph 6.4 mph 89 % 0.0 in
01:57 4.6 °F 2.8 °F 1018.8 in NNW 1.6 mph 6.4 mph 88 % 0.0 in
02:02 4.5 °F 2.7 °F 1018.8 in Calm   4.8 mph 88 % 0.0 in
02:07 4.4 °F 2.6 °F 1018.8 in WNW 3.2 mph 4.8 mph 88 % 0.0 in
02:12 4.5 °F 2.7 °F 1018.8 in WNW 1.6 mph 4.8 mph 88 % 0.0 in
02:17 4.7 °F 2.7 °F 1018.8 in WNW 1.6 mph 4.8 mph 87 % 0.0 in
02:22 4.8 °F 2.8 °F 1018.8 in NNW 3.2 mph 4.8 mph 87 % 0.0 in
02:27 4.9 °F 2.8 °F 1018.8 in NW 1.6 mph 4.8 mph 86 % 0.0 in
02:32 4.9 °F 2.8 °F 1018.8 in NW 1.6 mph 4.8 mph 86 % 0.0 in
02:37 5.0 °F 2.9 °F 1018.8 in Calm   3.2 mph 86 % 0.0 in
02:42 5.0 °F 2.9 °F 1019.2 in NNW 1.6 mph 3.2 mph 86 % 0.0 in
02:47 5.0 °F 2.9 °F 1019.2 in NW 1.6 mph 3.2 mph 86 % 0.0 in
02:52 5.0 °F 2.9 °F 1019.2 in NW 1.6 mph 3.2 mph 86 % 0.0 in
02:57 4.9 °F 2.9 °F 1019.2 in NW 1.6 mph 4.8 mph 87 % 0.0 in
03:02 4.9 °F 2.9 °F 1019.2 in NW 3.2 mph 4.8 mph 87 % 0.0 in
03:07 4.9 °F 2.9 °F 1019.2 in NW 4.8 mph 4.8 mph 87 % 0.0 in
03:12 5.0 °F 3.0 °F 1019.2 in WNW 1.6 mph 4.8 mph 87 % 0.0 in
03:17 5.1 °F 3.1 °F 1019.2 in Calm   4.8 mph 87 % 0.0 in
03:22 5.1 °F 3.1 °F 1019.2 in Calm   4.8 mph 87 % 0.0 in
03:27 5.1 °F 3.1 °F 1019.2 in Calm   4.8 mph 87 % 0.0 in
03:32 5.1 °F 3.1 °F 1019.2 in NW 1.6 mph 3.2 mph 87 % 0.0 in
03:37 5.0 °F 3.0 °F 1019.2 in Calm   4.8 mph 87 % 0.0 in
03:42 4.9 °F 3.1 °F 1019.2 in NNW 3.2 mph 4.8 mph 88 % 0.0 in
03:52 4.9 °F 3.1 °F 1019.2 in Calm   3.2 mph 88 % 0.0 in
03:57 4.8 °F 3.0 °F 1019.2 in NNW 3.2 mph 3.2 mph 88 % 0.0 in
04:02 4.8 °F 3.0 °F 1019.2 in NNW 1.6 mph 3.2 mph 88 % 0.0 in
04:07 4.7 °F 2.9 °F 1019.2 in Calm   3.2 mph 88 % 0.0 in
04:12 4.7 °F 3.0 °F 1019.2 in NNW 3.2 mph 3.2 mph 89 % 0.0 in
04:17 4.6 °F 2.9 °F 1019.2 in NW 1.6 mph 4.8 mph 89 % 0.0 in
04:22 4.6 °F 2.9 °F 1019.2 in NW 1.6 mph 4.8 mph 89 % 0.0 in
04:27 4.6 °F 2.9 °F 1019.2 in NW 1.6 mph 6.4 mph 89 % 0.0 in
04:32 4.6 °F 2.9 °F 1019.5 in NNW 1.6 mph 8.0 mph 89 % 0.0 in
04:37 4.4 °F 2.7 °F 1019.5 in NNW 3.2 mph 8.0 mph 89 % 0.0 in
04:42 4.2 °F 2.5 °F 1019.5 in NNW 1.6 mph 8.0 mph 89 % 0.0 in
04:47 4.1 °F 2.6 °F 1019.5 in NNW 3.2 mph 4.8 mph 90 % 0.0 in
04:52 4.1 °F 2.6 °F 1019.5 in NW 1.6 mph 6.4 mph 90 % 0.0 in
04:57 3.9 °F 2.6 °F 1019.5 in NW 3.2 mph 6.4 mph 91 % 0.0 in
05:02 4.0 °F 2.7 °F 1019.9 in NW 3.2 mph 6.4 mph 91 % 0.0 in
05:12 3.9 °F 2.6 °F 1019.9 in NNW 1.6 mph 4.8 mph 91 % 0.0 in
05:17 3.8 °F 2.6 °F 1019.9 in NNW 4.8 mph 6.4 mph 92 % 0.0 in
05:22 3.8 °F 2.6 °F 1019.9 in NNW 6.4 mph 6.4 mph 92 % 0.0 in
05:32 3.7 °F 2.5 °F 1019.9 in NW 1.6 mph 8.0 mph 92 % 0.0 in
05:37 3.6 °F 2.4 °F 1019.9 in NW 1.6 mph 8.0 mph 92 % 0.0 in
05:42 3.5 °F 2.3 °F 1019.9 in NNW 3.2 mph 8.0 mph 92 % 0.0 in
05:47 3.6 °F 2.4 °F 1019.9 in NNW 3.2 mph 6.4 mph 92 % 0.0 in
05:52 3.5 °F 2.3 °F 1019.9 in NNW 1.6 mph 6.4 mph 92 % 0.0 in
05:57 3.3 °F 2.1 °F 1019.9 in North 3.2 mph 6.4 mph 92 % 0.0 in
06:02 3.3 °F 2.3 °F 1019.9 in NW 3.2 mph 8.0 mph 93 % 0.0 in
06:07 3.4 °F 2.4 °F 1020.2 in North 4.8 mph 8.0 mph 93 % 0.0 in
06:12 3.5 °F 2.5 °F 1020.2 in NW 3.2 mph 8.0 mph 93 % 0.0 in
06:17 3.5 °F 2.5 °F 1020.2 in NNW 3.2 mph 8.0 mph 93 % 0.0 in
06:22 3.6 °F 2.6 °F 1020.2 in NNW 3.2 mph 8.0 mph 93 % 0.0 in
06:27 3.6 °F 2.6 °F 1020.2 in NNW 3.2 mph 8.0 mph 93 % 0.0 in
06:32 3.6 °F 2.6 °F 1020.2 in NW 3.2 mph 8.0 mph 93 % 0.0 in
06:37 3.7 °F 2.7 °F 1020.2 in North 3.2 mph 6.4 mph 93 % 0.0 in
06:42 3.7 °F 2.7 °F 1020.2 in North 1.6 mph 8.0 mph 93 % 0.0 in
06:52 3.4 °F 2.4 °F 1020.5 in NNW 3.2 mph 8.0 mph 93 % 0.0 in
06:57 3.4 °F 2.4 °F 1020.5 in NW 1.6 mph 4.8 mph 93 % 0.0 in
07:02 3.4 °F 2.4 °F 1020.9 in NW 1.6 mph 3.2 mph 93 % 0.0 in
07:12 3.1 °F 2.1 °F 1020.9 in NW 1.6 mph 6.4 mph 93 % 0.0 in
07:17 3.0 °F 2.1 °F 1021.2 in NW 1.6 mph 8.0 mph 94 % 0.0 in
07:22 3.1 °F 2.2 °F 1021.2 in NW 3.2 mph 8.0 mph 94 % 0.0 in
07:32 3.1 °F 2.2 °F 1021.6 in NW 3.2 mph 11.3 mph 94 % 0.0 in
07:37 3.1 °F 2.2 °F 1021.6 in NW 3.2 mph 11.3 mph 94 % 0.0 in
07:42 3.1 °F 2.2 °F 1021.6 in NW 3.2 mph 11.3 mph 94 % 0.0 in
07:47 3.1 °F 2.2 °F 1021.6 in NNW 3.2 mph 9.7 mph 94 % 0.0 in
07:52 3.1 °F 2.4 °F 1021.6 in North 3.2 mph 9.7 mph 95 % 0.0 in
07:57 3.2 °F 2.5 °F 1021.6 in WNW 3.2 mph 9.7 mph 95 % 0.0 in
08:02 3.3 °F 2.6 °F 1021.6 in NNW 1.6 mph 9.7 mph 95 % 0.0 in
08:12 3.4 °F 2.5 °F 1021.9 in NNW 1.6 mph 9.7 mph 94 % 0.0 in
08:17 3.4 °F 2.5 °F 1021.9 in NW 1.6 mph 11.3 mph 94 % 0.0 in
08:22 3.4 °F 2.7 °F 1021.9 in Calm   11.3 mph 95 % 0.0 in
08:27 3.4 °F 2.7 °F 1021.9 in NW 3.2 mph 11.3 mph 95 % 0.0 in
08:32 3.4 °F 2.7 °F 1021.9 in NNW 6.4 mph 9.7 mph 95 % 0.0 in
08:37 3.5 °F 2.8 °F 1021.9 in NW 3.2 mph 9.7 mph 95 % 0.0 in
08:42 3.6 °F 2.9 °F 1022.2 in NW 1.6 mph 9.7 mph 95 % 0.0 in
08:47 3.6 °F 2.9 °F 1022.2 in NNW 3.2 mph 9.7 mph 95 % 0.0 in
08:52 3.6 °F 2.9 °F 1022.2 in NW 4.8 mph 9.7 mph 95 % 0.0 in
08:57 3.6 °F 2.9 °F 1022.2 in NW 4.8 mph 8.0 mph 95 % 0.0 in
09:02 3.7 °F 3.1 °F 1022.2 in NW 3.2 mph 8.0 mph 96 % 0.3 in
09:12 3.8 °F 3.2 °F 1022.2 in NNW 6.4 mph 8.0 mph 96 % 0.3 in
09:17 3.8 °F 3.2 °F 1022.2 in Calm   8.0 mph 96 % 0.3 in
09:22 3.8 °F 3.2 °F 1022.2 in NW 6.4 mph 8.0 mph 96 % 0.3 in
09:27 3.9 °F 3.3 °F 1022.6 in NNW 4.8 mph 8.0 mph 96 % 0.3 in
09:32 4.0 °F 3.4 °F 1022.6 in NW 6.4 mph 8.0 mph 96 % 0.3 in
09:37 4.0 °F 3.4 °F 1022.6 in North 1.6 mph 8.0 mph 96 % 0.3 in
09:42 4.0 °F 3.4 °F 1022.6 in NW 1.6 mph 8.0 mph 96 % 0.3 in
09:47 4.1 °F 3.5 °F 1022.6 in NW 1.6 mph 8.0 mph 96 % 0.5 in
09:52 4.1 °F 3.5 °F 1022.6 in WNW 4.8 mph 6.4 mph 96 % 0.5 in
10:02 4.1 °F 3.5 °F 1022.6 in NW 4.8 mph 9.7 mph 96 % 0.3 in
10:07 4.2 °F 3.6 °F 1022.9 in WNW 3.2 mph 9.7 mph 96 % 0.3 in
10:12 4.3 °F 3.7 °F 1022.9 in NW 3.2 mph 8.0 mph 96 % 0.3 in
10:17 4.4 °F 3.8 °F 1022.9 in NW 3.2 mph 8.0 mph 96 % 0.3 in
10:22 4.4 °F 3.8 °F 1022.9 in NW 1.6 mph 8.0 mph 96 % 0.3 in
10:27 4.6 °F 4.0 °F 1022.9 in NW 1.6 mph 8.0 mph 96 % 0.3 in
10:32 4.7 °F 4.1 °F 1022.9 in West 6.4 mph 6.4 mph 96 % 0.3 in
10:37 4.7 °F 4.0 °F 1022.9 in NW 1.6 mph 8.0 mph 95 % 0.3 in
10:42 4.7 °F 4.0 °F 1022.9 in NNW 4.8 mph 11.3 mph 95 % 0.3 in
10:47 4.8 °F 4.1 °F 1022.9 in NNW 6.4 mph 12.9 mph 95 % 0.0 in
10:52 4.7 °F 3.8 °F 1022.9 in West 6.4 mph 12.9 mph 94 % 0.0 in
10:57 4.8 °F 4.1 °F 1022.9 in West 4.8 mph 12.9 mph 95 % 0.0 in
11:02 4.7 °F 4.0 °F 1022.9 in WNW 11.3 mph 16.1 mph 95 % 0.0 in
11:07 4.7 °F 4.0 °F 1023.2 in NW 4.8 mph 16.1 mph 95 % 0.0 in
11:12 4.7 °F 4.0 °F 1023.2 in NW 9.7 mph 16.1 mph 95 % 0.0 in
11:17 4.8 °F 4.1 °F 1023.2 in NNW 6.4 mph 12.9 mph 95 % 0.0 in
11:22 4.8 °F 4.1 °F 1023.2 in WNW 6.4 mph 12.9 mph 95 % 0.0 in
11:27 4.9 °F 4.2 °F 1023.2 in NNW 4.8 mph 12.9 mph 95 % 0.0 in
11:32 4.9 °F 4.2 °F 1023.2 in NNW 4.8 mph 12.9 mph 95 % 0.0 in
11:42 5.1 °F 4.4 °F 1023.6 in NNW 4.8 mph 16.1 mph 95 % 0.0 in
11:52 5.3 °F 4.4 °F 1023.6 in NW 3.2 mph 12.9 mph 94 % 0.0 in
11:57 5.3 °F 4.4 °F 1023.6 in NNW 4.8 mph 12.9 mph 94 % 0.0 in
12:02 5.4 °F 4.5 °F 1023.6 in NNW 4.8 mph 12.9 mph 94 % 0.0 in
12:07 5.4 °F 4.5 °F 1023.6 in NW 6.4 mph 14.5 mph 94 % 0.0 in
12:12 5.4 °F 4.4 °F 1023.6 in WNW 6.4 mph 14.5 mph 93 % 0.0 in
12:17 5.4 °F 4.4 °F 1023.9 in NNE 4.8 mph 16.1 mph 93 % 0.0 in
12:22 5.4 °F 4.4 °F 1023.9 in NNW 4.8 mph 16.1 mph 93 % 0.0 in
12:27 5.4 °F 4.4 °F 1023.9 in NNW 8.0 mph 16.1 mph 93 % 0.0 in
12:32 5.4 °F 4.4 °F 1023.9 in WNW 4.8 mph 14.5 mph 93 % 0.0 in
12:37 5.4 °F 4.4 °F 1023.9 in NW 6.4 mph 14.5 mph 93 % 0.0 in
12:42 5.3 °F 4.3 °F 1023.9 in NNW 3.2 mph 14.5 mph 93 % 0.0 in
12:52 5.2 °F 4.3 °F 1023.9 in NW 8.0 mph 19.3 mph 94 % 0.0 in
12:57 5.2 °F 4.3 °F 1023.9 in NW 1.6 mph 19.3 mph 94 % 0.0 in
13:02 5.1 °F 4.2 °F 1023.9 in NNW 4.8 mph 19.3 mph 94 % 0.0 in
13:07 5.2 °F 4.3 °F 1023.9 in NNW 1.6 mph 14.5 mph 94 % 0.0 in
13:12 5.2 °F 4.3 °F 1023.9 in NNW 4.8 mph 12.9 mph 94 % 0.0 in
13:17 5.3 °F 4.4 °F 1023.9 in North 4.8 mph 11.3 mph 94 % 0.0 in
13:22 5.3 °F 4.4 °F 1023.9 in North 9.7 mph 9.7 mph 94 % 0.0 in
13:27 5.4 °F 4.4 °F 1023.9 in West 1.6 mph 9.7 mph 93 % 0.0 in
13:32 5.6 °F 4.4 °F 1023.9 in West 3.2 mph 9.7 mph 92 % 0.0 in
13:37 5.8 °F 4.6 °F 1023.9 in NW 1.6 mph 9.7 mph 92 % 0.0 in
13:42 6.2 °F 4.7 °F 1023.9 in WNW 8.0 mph 9.7 mph 90 % 0.0 in
13:47 6.4 °F 4.7 °F 1023.9 in NW 3.2 mph 14.5 mph 89 % 0.0 in
13:52 6.2 °F 4.5 °F 1023.9 in NW 6.4 mph 17.7 mph 89 % 0.0 in
13:57 6.2 °F 4.5 °F 1023.9 in NW 4.8 mph 17.7 mph 89 % 0.0 in
14:02 6.1 °F 4.4 °F 1023.9 in NNW 6.4 mph 17.7 mph 89 % 0.0 in
14:07 5.9 °F 4.4 °F 1023.9 in North 3.2 mph 14.5 mph 90 % 0.0 in
14:12 5.9 °F 4.4 °F 1023.6 in NW 6.4 mph 14.5 mph 90 % 0.0 in
14:17 6.0 °F 4.5 °F 1023.6 in NW 3.2 mph 11.3 mph 90 % 0.0 in
14:22 6.2 °F 4.5 °F 1023.6 in NNW 6.4 mph 12.9 mph 89 % 0.0 in
14:27 6.2 °F 4.4 °F 1023.6 in WNW 6.4 mph 12.9 mph 88 % 0.0 in
14:32 6.3 °F 4.3 °F 1023.6 in NNW 8.0 mph 12.9 mph 87 % 0.0 in
14:37 6.3 °F 4.5 °F 1023.6 in North 4.8 mph 14.5 mph 88 % 0.0 in
14:42 6.4 °F 4.6 °F 1023.6 in NNW 3.2 mph 14.5 mph 88 % 0.0 in
14:47 6.4 °F 4.4 °F 1023.6 in NNW 3.2 mph 12.9 mph 87 % 0.0 in
14:52 6.4 °F 4.1 °F 1023.6 in NW 6.4 mph 12.9 mph 85 % 0.0 in
14:57 6.4 °F 4.2 °F 1023.6 in NW 6.4 mph 12.9 mph 86 % 0.0 in
15:02 6.4 °F 4.1 °F 1023.6 in NNW 3.2 mph 11.3 mph 85 % 0.0 in
15:07 6.4 °F 4.1 °F 1023.6 in NNW 1.6 mph 11.3 mph 85 % 0.0 in
15:12 6.3 °F 4.0 °F 1023.9 in WNW 1.6 mph 11.3 mph 85 % 0.0 in
15:17 6.3 °F 3.8 °F 1023.9 in WNW 4.8 mph 11.3 mph 84 % 0.0 in
15:22 6.3 °F 3.6 °F 1023.6 in North 6.4 mph 16.1 mph 83 % 0.0 in
15:27 6.3 °F 3.8 °F 1023.9 in North 6.4 mph 16.1 mph 84 % 0.0 in
15:32 6.3 °F 3.8 °F 1023.9 in NW 4.8 mph 14.5 mph 84 % 0.0 in
15:37 6.3 °F 4.0 °F 1023.9 in NNW 8.0 mph 14.5 mph 85 % 0.0 in
15:42 6.3 °F 4.0 °F 1023.9 in North 3.2 mph 16.1 mph 85 % 0.0 in
15:52 6.3 °F 4.0 °F 1023.9 in NW 4.8 mph 16.1 mph 85 % 0.0 in
15:57 6.4 °F 4.1 °F 1023.9 in NNE 6.4 mph 11.3 mph 85 % 0.0 in
16:02 6.3 °F 3.8 °F 1024.3 in North 6.4 mph 11.3 mph 84 % 0.0 in
16:07 6.4 °F 3.7 °F 1023.9 in NNW 3.2 mph 12.9 mph 83 % 0.0 in
16:12 6.4 °F 3.7 °F 1023.9 in NNW 6.4 mph 12.9 mph 83 % 0.0 in
16:17 6.4 °F 3.9 °F 1023.9 in NW 4.8 mph 12.9 mph 84 % 0.0 in
16:27 6.4 °F 3.6 °F 1024.3 in North 9.7 mph 12.9 mph 82 % 0.0 in
16:32 6.4 °F 3.6 °F 1024.3 in NNW 6.4 mph 12.9 mph 82 % 0.0 in
16:37 6.4 °F 3.4 °F 1023.9 in NNE 4.8 mph 16.1 mph 81 % 0.0 in
16:42 6.4 °F 3.4 °F 1023.9 in North 8.0 mph 16.1 mph 81 % 0.0 in
16:47 6.4 °F 3.2 °F 1023.9 in NW 6.4 mph 16.1 mph 80 % 0.0 in
16:52 6.4 °F 3.4 °F 1024.3 in NW 4.8 mph 12.9 mph 81 % 0.0 in
16:57 6.4 °F 3.4 °F 1024.3 in NW 6.4 mph 12.9 mph 81 % 0.0 in
17:02 6.3 °F 3.1 °F 1024.3 in NNW 11.3 mph 12.9 mph 80 % 0.0 in
17:07 6.3 °F 2.9 °F 1024.3 in North 8.0 mph 14.5 mph 79 % 0.0 in
17:12 6.3 °F 2.7 °F 1024.3 in North 8.0 mph 14.5 mph 78 % 0.0 in
17:17 6.3 °F 2.9 °F 1024.3 in NW 4.8 mph 16.1 mph 79 % 0.0 in
17:22 6.3 °F 2.7 °F 1024.3 in NNE 6.4 mph 16.1 mph 78 % 0.0 in
17:27 6.2 °F 2.8 °F 1024.3 in North 3.2 mph 14.5 mph 79 % 0.0 in
17:32 6.2 °F 2.8 °F 1024.3 in NNW 4.8 mph 14.5 mph 79 % 0.0 in
17:37 6.2 °F 2.8 °F 1024.3 in NNW 4.8 mph 14.5 mph 79 % 0.0 in
17:42 6.1 °F 2.9 °F 1024.3 in North 8.0 mph 12.9 mph 80 % 0.0 in
17:47 6.1 °F 2.9 °F 1024.3 in NNW 9.7 mph 11.3 mph 80 % 0.0 in
17:52 6.1 °F 2.9 °F 1024.3 in NNW 8.0 mph 12.9 mph 80 % 0.0 in
17:57 6.0 °F 3.0 °F 1024.3 in NNW 1.6 mph 12.9 mph 81 % 0.0 in
18:02 5.9 °F 2.9 °F 1024.6 in NNW 1.6 mph 12.9 mph 81 % 0.0 in
18:07 5.9 °F 2.9 °F 1024.6 in NNW 1.6 mph 9.7 mph 81 % 0.0 in
18:12 5.9 °F 2.9 °F 1024.6 in NNW 1.6 mph 9.7 mph 81 % 0.0 in
18:17 5.9 °F 2.9 °F 1024.9 in WNW 1.6 mph 9.7 mph 81 % 0.0 in
18:27 5.8 °F 3.0 °F 1024.9 in Calm   6.4 mph 82 % 0.0 in
18:32 5.7 °F 3.0 °F 1024.9 in NNE 1.6 mph 4.8 mph 83 % 0.0 in
18:37 5.7 °F 3.0 °F 1024.9 in Calm   4.8 mph 83 % 0.0 in
18:42 5.6 °F 2.9 °F 1024.9 in Calm   4.8 mph 83 % 0.0 in
18:47 5.7 °F 3.0 °F 1024.9 in Calm   4.8 mph 83 % 0.0 in
18:52 5.7 °F 2.9 °F 1024.9 in NW 1.6 mph 4.8 mph 82 % 0.0 in
18:57 5.7 °F 2.9 °F 1024.9 in Calm   4.8 mph 82 % 0.0 in
19:02 5.7 °F 2.9 °F 1024.9 in NNW 1.6 mph 6.4 mph 82 % 0.0 in
19:07 5.7 °F 2.9 °F 1024.9 in NNW 1.6 mph 6.4 mph 82 % 0.0 in
19:12 5.7 °F 2.9 °F 1024.9 in Calm   6.4 mph 82 % 0.0 in
19:17 5.7 °F 2.9 °F 1024.9 in NW 3.2 mph 6.4 mph 82 % 0.0 in
19:22 5.7 °F 2.9 °F 1024.9 in Calm   6.4 mph 82 % 0.0 in
19:27 5.7 °F 3.0 °F 1025.3 in NW 1.6 mph 6.4 mph 83 % 0.0 in
19:32 5.6 °F 2.9 °F 1025.3 in NNW 3.2 mph 6.4 mph 83 % 0.0 in
19:37 5.6 °F 2.9 °F 1025.3 in Calm   6.4 mph 83 % 0.0 in
19:42 5.6 °F 2.9 °F 1025.3 in NNE 1.6 mph 6.4 mph 83 % 0.0 in
19:47 5.5 °F 3.0 °F 1025.3 in North 1.6 mph 6.4 mph 84 % 0.0 in
19:52 5.4 °F 2.9 °F 1025.3 in NNW 3.2 mph 6.4 mph 84 % 0.0 in
19:57 5.4 °F 3.1 °F 1025.3 in North 1.6 mph 4.8 mph 85 % 0.0 in
20:02 5.3 °F 3.0 °F 1025.3 in North 1.6 mph 4.8 mph 85 % 0.0 in
20:07 5.2 °F 3.1 °F 1025.6 in Calm   4.8 mph 86 % 0.0 in
20:17 5.2 °F 3.1 °F 1025.6 in NW 3.2 mph 4.8 mph 86 % 0.0 in
20:22 5.2 °F 2.9 °F 1025.3 in Calm   4.8 mph 85 % 0.0 in
20:32 5.2 °F 2.9 °F 1025.6 in NNW 1.6 mph 4.8 mph 85 % 0.0 in
20:37 5.1 °F 2.8 °F 1025.6 in North 1.6 mph 3.2 mph 85 % 0.0 in
20:42 5.1 °F 2.8 °F 1025.6 in NNW 1.6 mph 3.2 mph 85 % 0.0 in
20:47 5.0 °F 2.9 °F 1025.3 in NNW 1.6 mph 3.2 mph 86 % 0.0 in
20:52 5.0 °F 2.9 °F 1025.3 in NW 1.6 mph 3.2 mph 86 % 0.0 in
20:57 4.9 °F 2.8 °F 1025.3 in North 1.6 mph 3.2 mph 86 % 0.0 in
21:02 4.9 °F 2.8 °F 1025.3 in NNW 1.6 mph 3.2 mph 86 % 0.0 in
21:07 4.8 °F 2.7 °F 1025.3 in NNW 1.6 mph 3.2 mph 86 % 0.0 in
21:12 4.8 °F 2.7 °F 1025.6 in NW 1.6 mph 3.2 mph 86 % 0.0 in
21:17 4.7 °F 2.7 °F 1025.6 in Calm   3.2 mph 87 % 0.0 in
21:22 4.7 °F 2.7 °F 1025.3 in NNW 1.6 mph 3.2 mph 87 % 0.0 in
21:27 4.7 °F 2.7 °F 1025.3 in NE 1.6 mph 3.2 mph 87 % 0.0 in
21:32 4.7 °F 2.7 °F 1025.3 in North 6.4 mph 6.4 mph 87 % 0.0 in
21:37 4.8 °F 2.8 °F 1025.3 in NNW 1.6 mph 6.4 mph 87 % 0.0 in
21:42 4.6 °F 2.6 °F 1025.3 in NW 1.6 mph 6.4 mph 87 % 0.0 in
21:47 4.6 °F 2.8 °F 1025.3 in NNW 3.2 mph 6.4 mph 88 % 0.0 in
21:52 4.6 °F 2.8 °F 1025.3 in North 4.8 mph 4.8 mph 88 % 0.0 in
22:02 4.5 °F 2.7 °F 1025.6 in NNW 3.2 mph 6.4 mph 88 % 0.0 in
22:07 4.5 °F 2.7 °F 1025.3 in North 3.2 mph 6.4 mph 88 % 0.0 in
22:12 4.6 °F 2.8 °F 1025.3 in NNW 3.2 mph 6.4 mph 88 % 0.0 in
22:17 4.6 °F 2.8 °F 1025.3 in North 3.2 mph 6.4 mph 88 % 0.0 in
22:22 4.4 °F 2.6 °F 1025.3 in Calm   6.4 mph 88 % 0.0 in
22:32 4.4 °F 2.6 °F 1025.3 in NNW 1.6 mph 4.8 mph 88 % 0.0 in
22:37 4.4 °F 2.6 °F 1025.3 in NE 3.2 mph 4.8 mph 88 % 0.0 in
22:42 4.4 °F 2.7 °F 1025.3 in North 1.6 mph 4.8 mph 89 % 0.0 in
22:47 4.4 °F 2.7 °F 1025.3 in NNW 3.2 mph 8.0 mph 89 % 0.0 in
22:52 4.4 °F 2.7 °F 1025.3 in North 4.8 mph 8.0 mph 89 % 0.0 in
22:57 4.4 °F 2.7 °F 1025.3 in NNW 3.2 mph 9.7 mph 89 % 0.0 in
23:02 4.4 °F 2.7 °F 1025.3 in NNW 1.6 mph 9.7 mph 89 % 0.0 in
23:12 4.2 °F 2.4 °F 1025.6 in NNW 8.0 mph 12.9 mph 88 % 0.0 in
23:17 4.2 °F 2.4 °F 1025.6 in North 8.0 mph 14.5 mph 88 % 0.0 in
23:22 4.1 °F 2.3 °F 1025.3 in NW 6.4 mph 14.5 mph 88 % 0.0 in
23:27 3.9 °F 2.1 °F 1025.3 in NW 6.4 mph 14.5 mph 88 % 0.0 in
23:32 3.8 °F 2.2 °F 1025.3 in NNW 4.8 mph 11.3 mph 89 % 0.0 in
23:37 3.7 °F 2.1 °F 1025.3 in North 8.0 mph 12.9 mph 89 % 0.0 in
23:42 3.8 °F 2.2 °F 1025.3 in NE 8.0 mph 12.9 mph 89 % 0.0 in
23:47 3.8 °F 2.2 °F 1025.3 in North 4.8 mph 12.9 mph 89 % 0.0 in
23:52 3.7 °F 2.1 °F 1025.3 in North 3.2 mph 12.9 mph 89 % 0.0 in
23:57 3.7 °F 2.1 °F 1025.6 in NNW 6.4 mph 11.3 mph 89 % 0.0 in
Meteo18
Compliments of Weather Underground - 4 mb

Script developed by  Jim McMurry - jmcmurry@mwt.net Adapted for the template by  Wim van der Kuil - Leuven-Template.eu

You find our weather info also at:

European Weather Network

Weather Underground

Equipment we use:

Weather-station
Davis Vue

Weather-program
Meteobridge

Weather-server
Raspberry PI 2 B+

Provider
1 and 1

Davis Vue

Meteobridge

Raspberry PI 2 B+

1 and 1